Terminal Aerodrome Forecast
Issued by NWS Sterling, VA

Current Version | Previous Version | Graphics & Text | Print | Product List | Glossary On
Versions: 1 2 3 4 5 6 7 8 9 10 11 12 13 14 15 16 17 18 19 20 21
000
FTUS41 KLWX 272340
TAFMRB
TAF
KMRB 272340Z 2800/2824 16004KT P6SM BKN120
     FM280400 00000KT 4SM BR BKN070
     FM280700 00000KT 2SM BR BKN090
     FM280900 00000KT 2SM -SHRA BR OVC050
     FM281500 23004KT P6SM -SHRA BKN060
     FM282200 29006KT 5SM -SHRA BKN040=

USA.gov is the U.S. government's official web portal to all federal, state and local government web resources and services.